Hlavní strana
METAR-TAF:

METAR-TAF

Letiště :

Johnson County Executive Airport

Olathe, Kansas, Spojené státy americké

zeměpisná šířka: 38-51-00N, zeměpisná délka: 094-44-21W, výška: 334 m

Aktuální stav počasí

Zpráva byla vytvořena před 49 minutami, v 00:53 UTC
Severoseverovýchodní vítr 11 kt s nárazy do 18 kt
Teplota 4°C
Vlhkost vzduchu 60%
Tlak 1019 hPa
Viditelnost: 16.1 km
Oblačno až skoro zataženo ve výšce 4500 ft
Zataženo ve výšce 7500 ft

METAR: KOJC 260053Z 03011G18KT 10SM BKN045 OVC075 04/M03 A3010 RMK AO2 SLP200 T00441033

Čas: 19:42 (01:42 UTC)


TAF: chybějící

Stav a předpovědi počasí z více než 4 000 letišť (zprávy METAR a TAF).

Červené a žluté tečky na mapě představují dostupné meteorologické stanice.

Když kurzor umístíte na tečku, zobrazí se název stanice.

Pak kliknutím zobrazíte stav a předpověď počasí.

Chcete-li změnit mapu, kliknutím na zelené tlačítko se znaménkem +mapu přiblížíte, kliknutím na zelené tlačítko se znaménkem – mapu oddálíte a kliknutím na zelené šipky přejdete na sousední mapy.


METAR-TAF: